createdAt,value
2019-03-04T00:01:57.712Z,29.90
2019-03-04T00:04:25.970Z,30.00
2019-03-04T00:06:54.257Z,29.90
2019-03-04T00:09:22.825Z,29.90
2019-03-04T00:11:51.081Z,30.00
2019-03-04T00:14:19.332Z,30.00
2019-03-04T00:16:47.605Z,30.00
2019-03-04T00:19:15.865Z,30.00
2019-03-04T00:21:44.149Z,30.00
2019-03-04T00:24:12.396Z,30.10
2019-03-04T00:26:40.646Z,30.20
2019-03-04T00:29:09.001Z,30.00
2019-03-04T00:31:37.245Z,30.10
2019-03-04T00:34:05.526Z,30.10
2019-03-04T00:36:34.049Z,30.30
2019-03-04T00:39:02.325Z,30.30
2019-03-04T00:41:30.574Z,30.20
2019-03-04T00:43:58.850Z,30.30
2019-03-04T00:46:27.106Z,30.30
2019-03-04T00:48:55.373Z,30.40
2019-03-04T00:51:23.642Z,30.50
2019-03-04T00:53:51.956Z,30.50
2019-03-04T00:56:20.230Z,30.50
2019-03-04T00:58:48.745Z,30.60
2019-03-04T01:01:20.037Z,30.70
2019-03-04T01:03:48.319Z,30.70
2019-03-04T01:06:16.566Z,30.70
2019-03-04T01:08:44.841Z,30.80
2019-03-04T01:11:13.096Z,30.90
2019-03-04T01:13:41.341Z,30.90
2019-03-04T01:16:09.853Z,30.90
2019-03-04T01:18:38.106Z,31.00
2019-03-04T01:21:06.385Z,31.00
2019-03-04T01:23:34.673Z,31.10
2019-03-04T01:26:02.913Z,31.10
2019-03-04T01:28:31.206Z,31.10
2019-03-04T01:30:59.454Z,31.10
2019-03-04T01:33:27.719Z,31.20
2019-03-04T01:35:55.985Z,31.20
2019-03-04T01:38:24.241Z,31.30
2019-03-04T01:40:52.484Z,31.30
2019-03-04T01:43:20.753Z,31.40
2019-03-04T01:45:48.991Z,31.40
2019-03-04T01:48:17.283Z,31.50
2019-03-04T01:50:45.548Z,31.50
2019-03-04T01:53:13.788Z,31.50
2019-03-04T01:55:42.032Z,31.60
2019-03-04T01:58:10.361Z,31.60
2019-03-04T02:00:38.923Z,31.70
2019-03-04T02:03:07.162Z,31.60
2019-03-04T02:05:35.423Z,31.80
2019-03-04T02:08:03.913Z,31.80
2019-03-04T02:10:32.165Z,31.90
2019-03-04T02:13:00.437Z,31.90
2019-03-04T02:15:28.701Z,32.00
2019-03-04T02:17:56.945Z,32.00
2019-03-04T02:20:25.450Z,32.10
2019-03-04T02:22:53.712Z,32.20
2019-03-04T02:25:43.052Z,32.10
2019-03-04T02:28:11.285Z,32.20
2019-03-04T02:30:39.591Z,32.30
2019-03-04T02:33:07.866Z,32.30
2019-03-04T02:35:36.129Z,32.30
2019-03-04T02:38:04.394Z,32.30
2019-03-04T02:40:32.718Z,32.40
2019-03-04T02:43:00.985Z,32.40
2019-03-04T02:45:29.478Z,32.50
2019-03-04T02:47:57.981Z,32.50
2019-03-04T02:50:26.254Z,32.50
2019-03-04T02:52:54.510Z,32.50
2019-03-04T02:55:23.066Z,32.50
2019-03-04T02:57:51.347Z,32.60
2019-03-04T03:00:19.757Z,32.60
2019-03-04T03:02:48.054Z,32.60
2019-03-04T03:05:16.297Z,32.80
2019-03-04T03:07:44.728Z,32.80
2019-03-04T03:10:13.894Z,32.80
2019-03-04T03:12:42.161Z,32.80
2019-03-04T03:15:12.015Z,33.00
2019-03-04T03:17:40.332Z,33.00
2019-03-04T03:20:12.459Z,32.90
2019-03-04T03:22:40.700Z,32.90
2019-03-04T03:25:10.430Z,33.00
2019-03-04T03:27:38.927Z,33.10
2019-03-04T03:30:12.994Z,33.10
2019-03-04T03:32:41.422Z,33.10
2019-03-04T03:35:10.063Z,33.20
2019-03-04T03:37:38.367Z,33.20
2019-03-04T03:40:09.901Z,33.30
2019-03-04T03:42:38.410Z,33.40
2019-03-04T03:45:08.117Z,33.40
2019-03-04T03:47:36.429Z,33.30
2019-03-04T03:50:08.253Z,33.40
2019-03-04T03:52:36.802Z,33.30
2019-03-04T03:55:08.007Z,33.40
2019-03-04T03:57:36.247Z,33.40
2019-03-04T04:00:13.597Z,33.40
2019-03-04T04:02:41.839Z,33.50
2019-03-04T04:05:10.102Z,33.50
2019-03-04T04:07:38.614Z,33.50
2019-03-04T04:10:15.815Z,33.60
2019-03-04T04:12:44.332Z,33.60
2019-03-04T04:15:14.841Z,33.70
2019-03-04T04:17:43.170Z,33.70
2019-03-04T04:20:12.514Z,33.70
2019-03-04T04:22:40.777Z,33.80
2019-03-04T04:25:09.956Z,34.50
2019-03-04T04:27:38.231Z,33.90
2019-03-04T04:30:09.765Z,33.90
2019-03-04T04:32:38.319Z,33.90
2019-03-04T04:35:06.868Z,33.90
2019-03-04T04:37:35.359Z,34.00
2019-03-04T04:40:04.173Z,34.00
2019-03-04T04:42:32.439Z,34.60
2019-03-04T04:45:00.945Z,34.10
2019-03-04T04:47:29.194Z,34.00
2019-03-04T04:49:57.452Z,34.10
2019-03-04T04:52:25.704Z,34.10
2019-03-04T04:54:53.995Z,34.20
2019-03-04T04:57:22.233Z,34.20
2019-03-04T04:59:50.500Z,34.20
2019-03-04T05:02:18.745Z,34.20
2019-03-04T05:04:47.262Z,34.30
2019-03-04T05:07:15.572Z,34.30
2019-03-04T05:09:43.841Z,34.40
2019-03-04T05:12:12.385Z,34.50
2019-03-04T05:14:40.650Z,34.40
2019-03-04T05:17:08.906Z,34.50
2019-03-04T05:19:37.174Z,34.40
2019-03-04T05:22:05.437Z,34.50
2019-03-04T05:24:33.672Z,34.50
2019-03-04T05:27:01.963Z,34.60
2019-03-04T05:29:30.229Z,34.70
2019-03-04T05:31:58.473Z,34.70
2019-03-04T05:34:26.732Z,34.80
2019-03-04T05:36:56.677Z,34.80
2019-03-04T05:39:25.140Z,34.90
2019-03-04T05:41:53.464Z,34.90
2019-03-04T05:44:21.718Z,34.90
2019-03-04T05:46:49.964Z,35.00
2019-03-04T05:49:18.209Z,35.00
2019-03-04T05:51:46.483Z,35.00
2019-03-04T05:54:14.741Z,35.10
2019-03-04T05:56:43.052Z,35.10
2019-03-04T05:59:19.369Z,35.20
2019-03-04T06:01:41.321Z,35.20
2019-03-04T06:04:09.561Z,35.30
2019-03-04T06:06:42.156Z,35.30
2019-03-04T06:09:12.192Z,35.40
2019-03-04T06:11:40.509Z,35.30
2019-03-04T06:14:09.309Z,35.40
2019-03-04T06:16:46.797Z,35.40
2019-03-04T06:19:07.552Z,35.40
2019-03-04T06:21:35.826Z,35.40
2019-03-04T06:24:04.073Z,35.40
2019-03-04T06:26:32.347Z,35.40
2019-03-04T06:29:00.721Z,35.50
2019-03-04T06:31:29.230Z,35.50
2019-03-04T06:33:57.474Z,35.50
2019-03-04T06:36:25.748Z,35.50
2019-03-04T06:38:53.985Z,35.50
2019-03-04T06:41:22.249Z,35.50
2019-03-04T06:43:50.584Z,35.60
2019-03-04T06:46:18.857Z,35.60
2019-03-04T06:48:47.121Z,35.60
2019-03-04T06:51:21.513Z,35.60
2019-03-04T06:53:58.903Z,35.60
2019-03-04T06:56:36.549Z,35.60
2019-03-04T06:59:14.135Z,35.70
2019-03-04T07:01:54.519Z,35.80
2019-03-04T07:04:28.595Z,35.80
2019-03-04T07:06:57.093Z,36.00
2019-03-04T07:09:26.225Z,35.80
2019-03-04T07:11:54.486Z,35.90
2019-03-04T07:14:22.769Z,35.90
2019-03-04T07:16:51.048Z,35.90
2019-03-04T07:19:19.370Z,36.00
2019-03-04T07:21:47.636Z,35.90
2019-03-04T07:24:15.914Z,35.90
2019-03-04T07:26:44.226Z,36.00
2019-03-04T07:29:13.355Z,36.00
2019-03-04T07:31:42.717Z,36.00
2019-03-04T07:34:10.981Z,36.00
2019-03-04T07:36:39.226Z,36.10
2019-03-04T07:39:08.030Z,36.00
2019-03-04T07:41:36.291Z,36.10
2019-03-04T07:44:04.605Z,36.10
2019-03-04T07:46:32.868Z,36.10
2019-03-04T07:49:01.389Z,36.10
2019-03-04T07:51:29.625Z,36.10
2019-03-04T07:53:57.913Z,36.10
2019-03-04T07:56:26.405Z,36.10
2019-03-04T07:58:54.677Z,36.10
2019-03-04T08:01:22.921Z,36.10
2019-03-04T08:03:51.413Z,36.20
2019-03-04T08:06:19.913Z,36.20
2019-03-04T08:09:03.274Z,36.20
2019-03-04T08:11:49.559Z,36.20
2019-03-04T08:14:17.809Z,36.20
2019-03-04T08:16:46.073Z,36.30
2019-03-04T08:19:14.323Z,36.30
2019-03-04T08:21:42.577Z,36.30
2019-03-04T08:24:10.825Z,36.30
2019-03-04T08:26:39.330Z,36.40
2019-03-04T08:29:07.978Z,36.30
2019-03-04T08:31:36.308Z,36.50
2019-03-04T08:34:04.797Z,36.40
2019-03-04T08:36:33.082Z,36.50
2019-03-04T08:39:01.320Z,36.50
2019-03-04T08:41:29.580Z,36.50
2019-03-04T08:43:58.085Z,36.50
2019-03-04T08:46:26.358Z,36.50
2019-03-04T08:48:54.861Z,36.50
2019-03-04T08:51:23.369Z,36.50
2019-03-04T08:53:51.613Z,36.50
2019-03-04T08:56:19.997Z,36.40
2019-03-04T08:58:48.274Z,36.40
2019-03-04T09:01:16.926Z,36.40
2019-03-04T09:03:45.169Z,36.40
2019-03-04T09:06:13.458Z,36.40
2019-03-04T09:08:41.762Z,36.30
2019-03-04T09:11:10.269Z,36.20
2019-03-04T09:13:38.758Z,36.20
2019-03-04T09:16:07.274Z,36.30
2019-03-04T09:18:35.531Z,36.30
2019-03-04T09:21:03.773Z,36.20
2019-03-04T09:23:32.030Z,36.20
2019-03-04T09:26:03.390Z,36.30
2019-03-04T09:28:31.652Z,36.20
2019-03-04T09:30:59.956Z,36.30
2019-03-04T09:33:28.443Z,36.20
2019-03-04T09:35:56.703Z,36.20
2019-03-04T09:38:24.950Z,36.20
2019-03-04T09:40:53.254Z,36.30
2019-03-04T09:43:21.749Z,36.20
2019-03-04T09:45:50.017Z,36.20
2019-03-04T09:48:18.273Z,36.30
2019-03-04T09:50:46.543Z,36.20
2019-03-04T09:53:14.786Z,36.20
2019-03-04T09:55:43.057Z,36.20
2019-03-04T09:58:11.567Z,36.00
2019-03-04T10:00:55.081Z,36.00
2019-03-04T10:03:41.718Z,36.00
2019-03-04T10:06:31.115Z,36.00
2019-03-04T10:09:35.605Z,36.20
2019-03-04T10:12:21.978Z,36.10
2019-03-04T10:15:20.502Z,36.10
2019-03-04T10:18:00.998Z,36.00
2019-03-04T10:20:50.493Z,36.10
2019-03-04T10:23:25.075Z,36.00
2019-03-04T10:26:22.268Z,36.10
2019-03-04T10:28:58.041Z,36.10
2019-03-04T10:31:54.404Z,36.10
2019-03-04T10:34:34.762Z,36.00
2019-03-04T10:37:11.957Z,36.00
2019-03-04T10:40:01.425Z,36.00
2019-03-04T10:42:42.251Z,36.00
2019-03-04T10:45:22.866Z,36.00
2019-03-04T10:47:51.382Z,36.00
2019-03-04T10:50:19.645Z,36.00
2019-03-04T10:52:47.894Z,36.00
2019-03-04T10:55:17.792Z,36.00
2019-03-04T10:57:46.292Z,35.90
2019-03-04T11:00:20.923Z,36.00
2019-03-04T11:02:49.176Z,36.00
2019-03-04T11:05:17.422Z,36.00
2019-03-04T11:07:45.710Z,36.00
2019-03-04T11:10:14.027Z,36.00
2019-03-04T11:12:42.281Z,36.00
2019-03-04T11:15:22.305Z,36.00
2019-03-04T11:17:50.799Z,36.00
2019-03-04T11:20:19.061Z,36.00
2019-03-04T11:22:50.482Z,35.90
2019-03-04T11:25:19.549Z,35.90
2019-03-04T11:27:47.798Z,35.90
2019-03-04T11:30:22.198Z,35.90
2019-03-04T11:32:50.443Z,35.90
2019-03-04T11:35:18.701Z,35.90
2019-03-04T11:37:46.976Z,35.90
2019-03-04T11:40:20.229Z,35.80
2019-03-04T11:42:50.525Z,35.70
2019-03-04T11:45:19.309Z,35.80
2019-03-04T11:47:47.561Z,35.70
2019-03-04T11:50:16.464Z,35.80
2019-03-04T11:52:44.739Z,35.70
2019-03-04T11:55:15.533Z,35.70
2019-03-04T11:57:43.795Z,35.60
2019-03-04T12:00:28.048Z,35.60
2019-03-04T12:02:56.337Z,35.50
2019-03-04T12:05:24.614Z,35.50
2019-03-04T12:07:52.872Z,35.40
2019-03-04T12:10:21.358Z,35.50
2019-03-04T12:12:49.628Z,35.30
2019-03-04T12:15:21.333Z,35.30
2019-03-04T12:17:49.604Z,35.40
2019-03-04T12:20:18.310Z,35.40
2019-03-04T12:22:46.584Z,35.50
2019-03-04T12:25:18.617Z,35.50
2019-03-04T12:27:46.861Z,35.50
2019-03-04T12:30:20.222Z,35.50
2019-03-04T12:32:48.470Z,35.70
2019-03-04T12:35:17.007Z,35.70
2019-03-04T12:37:45.245Z,35.70
2019-03-04T12:40:15.811Z,35.60
2019-03-04T12:42:44.059Z,35.60
2019-03-04T12:45:20.429Z,35.70
2019-03-04T12:47:48.673Z,35.70
2019-03-04T12:50:28.466Z,35.80
2019-03-04T12:52:57.647Z,35.70
2019-03-04T12:55:26.163Z,35.70
2019-03-04T12:57:54.686Z,35.50
2019-03-04T13:00:31.925Z,35.30
2019-03-04T13:03:00.202Z,35.40
2019-03-04T13:05:28.449Z,35.40
2019-03-04T13:07:56.705Z,35.50
2019-03-04T13:10:26.723Z,35.50
2019-03-04T13:12:55.241Z,35.30
2019-03-04T13:15:34.994Z,35.00
2019-03-04T13:18:05.665Z,34.90
2019-03-04T13:20:33.908Z,34.50
2019-03-04T13:23:02.174Z,35.20
2019-03-04T13:25:30.420Z,34.70
2019-03-04T13:28:07.799Z,34.90
2019-03-04T13:30:31.654Z,34.80
2019-03-04T13:32:59.918Z,34.80
2019-03-04T13:35:31.157Z,34.80
2019-03-04T13:37:59.403Z,34.60
2019-03-04T13:40:28.806Z,34.60
2019-03-04T13:42:57.069Z,34.80
2019-03-04T13:45:25.342Z,34.90
2019-03-04T13:47:53.605Z,35.00
2019-03-04T13:50:29.749Z,35.10
2019-03-04T13:52:58.037Z,35.20
2019-03-04T13:55:26.545Z,35.30
2019-03-04T13:57:54.817Z,35.30
2019-03-04T14:00:31.389Z,35.30
2019-03-04T14:02:59.898Z,35.40
2019-03-04T14:05:28.139Z,35.30
2019-03-04T14:07:56.398Z,36.00
2019-03-04T14:10:30.116Z,35.30
2019-03-04T14:12:58.365Z,35.30
2019-03-04T14:15:43.941Z,35.20
2019-03-04T14:18:12.202Z,35.30
2019-03-04T14:20:40.691Z,35.30
2019-03-04T14:23:09.023Z,35.30
2019-03-04T14:25:37.529Z,35.30
2019-03-04T14:28:05.803Z,35.30
2019-03-04T14:30:34.070Z,35.30
2019-03-04T14:33:02.319Z,35.30
2019-03-04T14:35:30.811Z,35.20
2019-03-04T14:37:59.080Z,35.10
2019-03-04T14:40:27.316Z,35.00
2019-03-04T14:42:55.762Z,35.00
2019-03-04T14:45:25.446Z,35.00
2019-03-04T14:47:53.715Z,35.00
2019-03-04T14:50:21.961Z,35.00
2019-03-04T14:52:50.234Z,35.00
2019-03-04T14:55:20.113Z,35.00
2019-03-04T14:57:48.385Z,35.00
2019-03-04T15:00:29.384Z,35.00
2019-03-04T15:02:57.629Z,34.80
2019-03-04T15:05:25.977Z,34.90
2019-03-04T15:07:55.738Z,34.80
2019-03-04T15:10:24.205Z,34.90
2019-03-04T15:12:52.445Z,34.80
2019-03-04T15:15:23.117Z,34.90
2019-03-04T15:17:51.385Z,34.80
2019-03-04T15:20:21.814Z,34.90
2019-03-04T15:22:50.057Z,34.90
2019-03-04T15:25:21.285Z,34.90
2019-03-04T15:27:49.553Z,34.90
2019-03-04T15:30:18.140Z,34.90
2019-03-04T15:32:46.433Z,34.90
2019-03-04T15:35:14.738Z,34.80
2019-03-04T15:37:42.981Z,34.80
2019-03-04T15:40:14.929Z,34.80
2019-03-04T15:42:43.190Z,34.90
2019-03-04T15:45:12.957Z,34.90
2019-03-04T15:47:42.600Z,35.00
2019-03-04T15:50:11.663Z,34.90
2019-03-04T15:52:39.970Z,35.30
2019-03-04T15:55:10.177Z,35.00
2019-03-04T15:57:38.453Z,34.90
2019-03-04T16:00:14.570Z,35.00
2019-03-04T16:02:42.840Z,35.00
2019-03-04T16:05:12.506Z,35.10
2019-03-04T16:07:40.738Z,35.10
2019-03-04T16:10:11.638Z,35.00
2019-03-04T16:12:40.932Z,35.10
2019-03-04T16:15:12.181Z,35.10
2019-03-04T16:17:40.449Z,35.20
2019-03-04T16:20:15.943Z,35.30
2019-03-04T16:22:41.765Z,35.30
2019-03-04T16:25:11.248Z,35.80
2019-03-04T16:27:39.513Z,35.20
2019-03-04T16:30:19.965Z,35.30
2019-03-04T16:32:48.471Z,35.30
2019-03-04T16:35:16.733Z,35.60
2019-03-04T16:37:45.054Z,35.40
2019-03-04T16:40:17.745Z,35.30
2019-03-04T16:42:46.020Z,35.40
2019-03-04T16:45:17.523Z,35.40
2019-03-04T16:47:45.761Z,35.40
2019-03-04T16:50:15.464Z,35.50
2019-03-04T16:52:45.945Z,35.50
2019-03-04T16:55:15.351Z,35.50
2019-03-04T16:57:43.599Z,34.80
2019-03-04T17:00:14.331Z,34.20
2019-03-04T17:02:42.818Z,33.90
2019-03-04T17:05:13.256Z,33.80
2019-03-04T17:07:41.516Z,34.10
2019-03-04T17:10:11.593Z,34.00
2019-03-04T17:12:39.854Z,34.00
2019-03-04T17:15:11.144Z,34.20
2019-03-04T17:17:39.428Z,34.40
2019-03-04T17:20:10.695Z,34.40
2019-03-04T17:22:38.941Z,34.50
2019-03-04T17:25:10.053Z,34.60
2019-03-04T17:27:38.298Z,34.60
2019-03-04T17:30:15.382Z,34.70
2019-03-04T17:32:43.625Z,34.80
2019-03-04T17:35:14.499Z,34.80
2019-03-04T17:37:42.741Z,34.90
2019-03-04T17:40:13.786Z,35.00
2019-03-04T17:42:42.049Z,35.00
2019-03-04T17:45:12.896Z,35.00
2019-03-04T17:47:41.243Z,35.10
2019-03-04T17:50:15.221Z,35.10
2019-03-04T17:52:43.513Z,35.20
2019-03-04T17:55:13.014Z,35.20
2019-03-04T17:57:41.284Z,35.10
2019-03-04T18:00:15.042Z,35.20
2019-03-04T18:02:43.290Z,35.20
2019-03-04T18:05:12.047Z,35.20
2019-03-04T18:07:40.749Z,35.30
2019-03-04T18:10:17.166Z,35.40
2019-03-04T18:12:45.647Z,35.40
2019-03-04T18:15:16.520Z,35.40
2019-03-04T18:17:44.813Z,35.50
2019-03-04T18:20:14.563Z,35.50
2019-03-04T18:22:43.070Z,35.50
2019-03-04T18:25:20.579Z,35.50
2019-03-04T18:27:51.662Z,35.70
2019-03-04T18:30:55.045Z,35.60
2019-03-04T18:33:35.049Z,35.60
2019-03-04T18:36:15.546Z,35.70
2019-03-04T18:39:01.653Z,35.70
2019-03-04T18:41:51.115Z,35.80
2019-03-04T18:44:47.966Z,35.90
2019-03-04T18:47:38.905Z,35.80
2019-03-04T18:50:07.453Z,35.90
2019-03-04T18:52:35.701Z,35.90
2019-03-04T18:55:05.297Z,36.00
2019-03-04T18:57:33.550Z,36.00
2019-03-04T19:00:01.814Z,36.00
2019-03-04T19:02:30.057Z,36.00
2019-03-04T19:04:58.329Z,36.00
2019-03-04T19:07:26.617Z,36.10
2019-03-04T19:09:54.919Z,36.10
2019-03-04T19:12:23.170Z,36.00
2019-03-04T19:14:51.413Z,36.10
2019-03-04T19:17:19.676Z,36.10
2019-03-04T19:19:47.938Z,36.20
2019-03-04T19:22:16.191Z,36.10
2019-03-04T19:24:44.677Z,36.20
2019-03-04T19:27:12.942Z,36.10
2019-03-04T19:29:41.187Z,36.20
2019-03-04T19:32:09.528Z,36.20
2019-03-04T19:34:37.773Z,36.20
2019-03-04T19:37:06.048Z,36.30
2019-03-04T19:39:34.309Z,36.30
2019-03-04T19:42:04.211Z,36.20
2019-03-04T19:44:32.558Z,36.30
2019-03-04T19:47:00.804Z,36.30
2019-03-04T19:49:29.343Z,37.00
2019-03-04T19:51:57.590Z,36.40
2019-03-04T19:54:25.841Z,36.40
2019-03-04T19:56:54.110Z,36.30
2019-03-04T19:59:22.357Z,36.40
2019-03-04T20:01:50.621Z,36.40
2019-03-04T20:04:18.885Z,36.40
2019-03-04T20:06:47.389Z,36.30
2019-03-04T20:09:15.691Z,36.40
2019-03-04T20:11:44.178Z,36.30
2019-03-04T20:14:12.448Z,36.30
2019-03-04T20:16:40.727Z,36.30
2019-03-04T20:19:08.981Z,36.30
2019-03-04T20:21:37.249Z,36.90
2019-03-04T20:24:05.497Z,36.30
2019-03-04T20:26:33.770Z,36.30
2019-03-04T20:29:02.018Z,36.30
2019-03-04T20:31:30.321Z,36.30
2019-03-04T20:33:58.555Z,36.30
2019-03-04T20:36:27.046Z,36.30
2019-03-04T20:38:55.573Z,36.30
2019-03-04T20:41:23.834Z,36.30
2019-03-04T20:43:52.097Z,36.30
2019-03-04T20:46:20.388Z,36.40
2019-03-04T20:48:48.718Z,36.30
2019-03-04T20:51:17.032Z,36.40
2019-03-04T20:53:45.538Z,36.40
2019-03-04T20:56:13.832Z,36.40
2019-03-04T20:58:42.077Z,36.40
2019-03-04T21:01:10.614Z,36.50
2019-03-04T21:03:38.915Z,36.40
2019-03-04T21:06:07.307Z,36.40
2019-03-04T21:08:35.572Z,36.50
2019-03-04T21:11:03.839Z,36.40
2019-03-04T21:13:35.584Z,36.50
2019-03-04T21:16:02.094Z,36.50
2019-03-04T21:18:30.602Z,36.50
2019-03-04T21:20:58.903Z,36.60
2019-03-04T21:23:27.226Z,36.50
2019-03-04T21:26:04.426Z,36.50
2019-03-04T21:28:41.757Z,36.50
2019-03-04T21:31:18.642Z,36.60
2019-03-04T21:33:56.185Z,36.50
2019-03-04T21:37:00.640Z,36.50
2019-03-04T21:39:33.172Z,36.60
2019-03-04T21:42:22.528Z,36.60
2019-03-04T21:45:02.986Z,36.60
2019-03-04T21:47:52.554Z,36.60
2019-03-04T21:50:49.549Z,36.60
2019-03-04T21:53:30.062Z,36.60
2019-03-04T21:56:22.546Z,36.70
2019-03-04T21:58:50.877Z,36.70
2019-03-04T22:01:28.194Z,36.80
2019-03-04T22:03:56.457Z,36.80
2019-03-04T22:06:24.717Z,36.80
2019-03-04T22:08:53.308Z,36.80
2019-03-04T22:11:21.545Z,36.80
2019-03-04T22:13:49.887Z,36.80
2019-03-04T22:16:18.225Z,36.70
2019-03-04T22:18:46.508Z,36.80
2019-03-04T22:21:16.830Z,36.80
2019-03-04T22:23:44.828Z,36.80
2019-03-04T22:26:13.078Z,36.80
2019-03-04T22:28:41.374Z,36.80
2019-03-04T22:31:09.896Z,36.80
2019-03-04T22:33:38.153Z,36.80
2019-03-04T22:36:06.416Z,36.80
2019-03-04T22:38:34.669Z,36.80
2019-03-04T22:41:03.248Z,36.80
2019-03-04T22:43:31.497Z,36.80
2019-03-04T22:45:59.760Z,36.80
2019-03-04T22:48:28.019Z,36.90
2019-03-04T22:50:56.363Z,37.00
2019-03-04T22:53:24.600Z,37.00
2019-03-04T22:55:52.862Z,37.00
2019-03-04T22:58:28.654Z,37.00
2019-03-04T23:00:56.014Z,37.10
2019-03-04T23:03:29.750Z,37.10
2019-03-04T23:06:07.189Z,37.10
2019-03-04T23:08:35.507Z,37.10
2019-03-04T23:11:03.758Z,37.10
2019-03-04T23:13:57.837Z,37.20
2019-03-04T23:16:29.356Z,37.20
2019-03-04T23:18:57.588Z,37.30
2019-03-04T23:21:26.111Z,37.30
2019-03-04T23:23:54.377Z,37.20
2019-03-04T23:26:23.186Z,37.30
2019-03-04T23:28:51.449Z,37.30
2019-03-04T23:31:21.762Z,37.40
2019-03-04T23:33:50.070Z,37.40
2019-03-04T23:36:18.315Z,37.40
2019-03-04T23:38:46.632Z,37.50
2019-03-04T23:41:14.901Z,37.50
2019-03-04T23:43:43.145Z,37.50
2019-03-04T23:46:11.683Z,37.50
2019-03-04T23:48:39.941Z,37.50
2019-03-04T23:51:08.185Z,37.60
2019-03-04T23:53:36.453Z,37.50
2019-03-04T23:56:04.698Z,37.60
2019-03-04T23:58:32.962Z,37.60
